Bangui, Central African Republic
Current Conditions -  °F | °C
As of 10:00 PM on Wednesday 17 Dec 2014 (Local Time) from FEFF Reporting Station
Clear Clear  
Wind Chill: 25°   Ceiling: Unl
Heat Index: 26°   Visibility: 6mi
Dew Point: 24°   Wind: 0mph
Humidity: 94%   Direction: NA
Pressure: 29.91"   Gusts: NA
Location:  4.36°N, 18.56°E
Report Text: FEFF 172100Z 00000KT CAVOK 25/24 Q1013 NOSIG
Loading
Personal Weather Stations






























Interactive Weather Map New forecast layout! Learn more

10-Day Weather Forecast

Advertisements
Track Severe Weather on mobile